General Aviation Weather

Text Reports

Enter one or more of the following location identifiers separated by a space:

Zip Code, Four-Character ICAO or Three-Character IATA airport codes.

METAR - Aviation Routine Weather Report
KMWM - Windom, Minnesota
Updated at 7:34 PM GMT on January 27, 2015 (1:34 PM CST):
METAR KMWM 271934Z AUTO 12007KT 10SM SCT013 04/01 A3008 RMK AO2
TAF - Terminal Area Forecast
KMWM - Windom, Minnesota
Updated at 7:34 PM GMT on January 27, 2015 (1:34 PM CST):
No TAF is currently available for this location.
Decoded:
No decoded TAF is available.
PIREP - Pilot Weather Report
KMWM - Windom, Minnesota
Updated at 7:34 PM GMT on January 27, 2015 (1:34 PM CST):
No PIREP is currently available for this location.
AIRMET - Airmens Meteorological Information
KMWM - Windom, Minnesota
Updated at 7:34 PM GMT on January 27, 2015 (1:34 PM CST):
No AIRMET is currently available for this location.
SIGMET - Significant Meteorological Information
KMWM - Windom, Minnesota
Updated at 7:34 PM GMT on January 27, 2015 (1:34 PM CST):
No SIGMET is currently available for this location.
NOTAM - Notice to Airmen
KMWM - Windom, Minnesota
Updated at 7:34 PM GMT on January 27, 2015 (1:34 PM CST):
No NOTAM is currently available for this location.
Forecast Area
KMWM - Windom, Minnesota
Updated at 7:34 PM GMT on January 27, 2015 (1:34 PM CST):
No NOTAM is currently available for this location.
Aviation Weather Maps